メインページ
METAR-TAF:

METAR-TAF

空港 :

グラン・カナリア空港

グラン・カナリア島, スペイン

緯度: 27-56N, 経度: 015-23W, 海抜: 23m

現時点の気象観測

当レポートは39分前の05:00(UTC)に作成
無風
気温 21°C
湿度 73%
気圧 1015 hPa
視程10km以上
高度3000ftの雲はほとんどない

METAR: GCLP 220500Z 00000KT 9999 FEW030 21/16 Q1015 NOSIG

時間: 06:39 (05:39 UTC)

予報

当レポートは3時間39分前の02:00(UTC)に作成
予報は22日の 03時(UTC)から 23日の 03時(UTC)まで有効
西の風 5kt
視程10km以上
高度3000ftの雲はほとんどない
22日の 09時(UTC)から 22日の 11時(UTC)まで徐々に
の風 15kt
22日の 18時(UTC)から 22日の 20時(UTC)まで徐々に
西/南西の風 7kt

TAF: GCLP 220200Z 2203/2303 28005KT 9999 FEW030 TX25/2214Z TN18/2205Z BECMG 2209/2211 18015KT BECMG 2218/2220 24007KT

4,000以上の空港の気象観測と天気予報(METAR報とTAF報)

利用可能な観測所は地図上に黄色い丸と赤い丸で示す。

丸の上にカーソルを重ねると観測所名を参照できる。

次にクリックすると気象観測と天気予報を参照できる。

マップの切り替え:黒色「×」印の緑ボタンをクリックして拡大、「-」印の緑ボタンをクリックして縮小、緑色の三角印をクリックして隣りの地図に切り替え


METAR-TAF: